createdAt,value
2018-07-16T00:00:42.592Z,14.75
2018-07-16T00:01:42.565Z,14.76
2018-07-16T00:02:42.559Z,14.8
2018-07-16T00:03:42.724Z,14.8
2018-07-16T00:04:42.624Z,14.98
2018-07-16T00:05:42.575Z,15.03
2018-07-16T00:06:42.540Z,15.04
2018-07-16T00:07:42.741Z,15.06
2018-07-16T00:08:42.608Z,15.04
2018-07-16T00:09:42.721Z,15.06
2018-07-16T00:10:42.569Z,15.03
2018-07-16T00:11:42.566Z,15.08
2018-07-16T00:12:42.605Z,15.12
2018-07-16T00:13:42.598Z,15.2
2018-07-16T00:14:43.518Z,15.14
2018-07-16T00:15:42.550Z,15.15
2018-07-16T00:16:42.627Z,15.13
2018-07-16T00:17:42.561Z,15.25
2018-07-16T00:18:42.564Z,15.24
2018-07-16T00:19:42.669Z,15.28
2018-07-16T00:20:42.622Z,15.11
2018-07-16T00:21:42.772Z,15.15
2018-07-16T00:22:42.552Z,15.25
2018-07-16T00:23:42.559Z,15.28
2018-07-16T00:24:42.614Z,15.18
2018-07-16T00:25:42.636Z,15.22
2018-07-16T00:26:42.592Z,15.16
2018-07-16T00:27:42.569Z,14.87
2018-07-16T00:28:42.529Z,14.92
2018-07-16T00:29:42.569Z,14.91
2018-07-16T00:30:42.537Z,14.84
2018-07-16T00:31:42.725Z,14.99
2018-07-16T00:32:42.542Z,14.8
2018-07-16T00:33:42.770Z,14.74
2018-07-16T00:34:42.619Z,14.82
2018-07-16T00:35:42.523Z,15.01
2018-07-16T00:36:42.871Z,15
2018-07-16T00:37:42.591Z,15.04
2018-07-16T00:38:42.620Z,14.86
2018-07-16T00:39:42.543Z,14.92
2018-07-16T00:40:42.588Z,14.97
2018-07-16T00:41:42.665Z,14.9
2018-07-16T00:42:42.638Z,14.96
2018-07-16T00:43:42.542Z,14.97
2018-07-16T00:44:42.541Z,15.04
2018-07-16T00:45:42.581Z,15.1
2018-07-16T00:46:42.536Z,15.04
2018-07-16T00:47:42.555Z,15.08
2018-07-16T00:48:42.521Z,15.29
2018-07-16T00:49:42.600Z,15.18
2018-07-16T00:50:42.527Z,15.24
2018-07-16T00:51:42.556Z,15.65
2018-07-16T00:52:42.535Z,15.58
2018-07-16T00:53:42.535Z,15.55
2018-07-16T00:54:42.540Z,15.57
2018-07-16T00:55:42.771Z,15.44
2018-07-16T00:56:42.520Z,15.5
2018-07-16T00:57:42.615Z,15.46
2018-07-16T00:58:42.557Z,15.37
2018-07-16T00:59:42.557Z,15.45
2018-07-16T01:00:42.543Z,15.38
2018-07-16T01:01:42.535Z,15.31
2018-07-16T01:02:42.522Z,15.27
2018-07-16T01:03:42.617Z,15.37
2018-07-16T01:04:42.611Z,15.38
2018-07-16T01:05:42.527Z,15.31
2018-07-16T01:06:42.537Z,15.33
2018-07-16T01:07:42.549Z,15.24
2018-07-16T01:08:42.527Z,15.28
2018-07-16T01:09:42.815Z,15.27
2018-07-16T01:10:42.601Z,15.24
2018-07-16T01:11:42.563Z,15.16
2018-07-16T01:12:42.523Z,15.3
2018-07-16T01:13:42.515Z,15.22
2018-07-16T01:14:42.728Z,15.14
2018-07-16T01:15:42.557Z,15.24
2018-07-16T01:16:42.541Z,15.31
2018-07-16T01:17:42.516Z,15.24
2018-07-16T01:18:42.677Z,15.16
2018-07-16T01:19:42.562Z,15.14
2018-07-16T01:20:42.535Z,15.25
2018-07-16T01:21:42.533Z,15.22
2018-07-16T01:22:42.560Z,15.3
2018-07-16T01:23:42.523Z,15.24
2018-07-16T01:24:42.505Z,15.24
2018-07-16T01:25:42.531Z,15.25
2018-07-16T01:26:42.535Z,15.14
2018-07-16T01:27:42.614Z,15.35
2018-07-16T01:28:42.546Z,15.23
2018-07-16T01:29:42.556Z,15.32
2018-07-16T01:30:42.572Z,15.35
2018-07-16T01:31:42.569Z,15.28
2018-07-16T01:32:42.803Z,15.32
2018-07-16T01:33:42.517Z,15.4
2018-07-16T01:34:42.542Z,15.36
2018-07-16T01:35:42.529Z,15.45
2018-07-16T01:36:42.577Z,15.55
2018-07-16T01:37:42.578Z,15.62
2018-07-16T01:38:42.558Z,15.45
2018-07-16T01:39:42.541Z,15.37
2018-07-16T01:40:42.577Z,15.35
2018-07-16T01:41:42.534Z,15.52
2018-07-16T01:42:42.581Z,15.41
2018-07-16T01:43:42.521Z,15.46
2018-07-16T01:44:42.692Z,15.36
2018-07-16T01:45:42.538Z,15.3
2018-07-16T01:46:42.601Z,15.54
2018-07-16T01:47:42.694Z,15.46
2018-07-16T01:48:42.589Z,15.5
2018-07-16T01:49:42.513Z,15.64
2018-07-16T01:50:42.676Z,15.5
2018-07-16T01:51:42.509Z,15.48
2018-07-16T01:52:42.550Z,15.59
2018-07-16T01:53:42.613Z,15.46
2018-07-16T01:54:42.521Z,15.4
2018-07-16T01:55:42.511Z,15.34
2018-07-16T01:56:42.546Z,15.37
2018-07-16T01:57:42.503Z,15.39
2018-07-16T01:58:42.509Z,15.37
2018-07-16T01:59:42.553Z,15.28
2018-07-16T02:00:42.533Z,15.33
2018-07-16T02:01:42.493Z,15.32
2018-07-16T02:02:42.501Z,15.35
2018-07-16T02:03:42.876Z,15.32
2018-07-16T02:04:42.518Z,15.43
2018-07-16T02:05:42.502Z,15.31
2018-07-16T02:06:42.544Z,15.26
2018-07-16T02:07:42.516Z,15.38
2018-07-16T02:08:42.526Z,15.38
2018-07-16T02:09:42.503Z,15.32
2018-07-16T02:10:42.509Z,15.33
2018-07-16T02:11:42.511Z,15.33
2018-07-16T02:12:42.492Z,15.31
2018-07-16T02:13:42.506Z,15.26
2018-07-16T02:14:42.477Z,15.3
2018-07-16T02:15:42.492Z,15.19
2018-07-16T02:16:42.506Z,15.18
2018-07-16T02:17:42.533Z,15.22
2018-07-16T02:18:42.509Z,15.36
2018-07-16T02:19:42.662Z,15.27
2018-07-16T02:20:42.568Z,15.35
2018-07-16T02:21:42.710Z,15.3
2018-07-16T02:22:42.520Z,15.33
2018-07-16T02:23:44.669Z,15.22
2018-07-16T02:24:42.546Z,15.35
2018-07-16T02:25:42.570Z,15.22
2018-07-16T02:26:42.521Z,15.15
2018-07-16T02:27:42.539Z,15.21
2018-07-16T02:28:42.520Z,15.35
2018-07-16T02:29:42.539Z,15.3
2018-07-16T02:30:42.604Z,15.21
2018-07-16T02:31:42.550Z,15.19
2018-07-16T02:32:42.573Z,15.33
2018-07-16T02:33:42.511Z,15.3
2018-07-16T02:34:42.528Z,15.21
2018-07-16T02:35:42.508Z,15.33
2018-07-16T02:36:42.506Z,15.43
2018-07-16T02:37:42.544Z,15.35
2018-07-16T02:38:42.554Z,15.64
2018-07-16T02:39:42.528Z,15.38
2018-07-16T02:40:42.613Z,15.4
2018-07-16T02:41:42.553Z,15.46
2018-07-16T02:42:42.510Z,15.59
2018-07-16T02:43:42.568Z,15.47
2018-07-16T02:44:42.770Z,15.6
2018-07-16T02:45:42.549Z,15.63
2018-07-16T02:46:42.500Z,15.62
2018-07-16T02:47:42.500Z,15.49
2018-07-16T02:48:42.520Z,15.52
2018-07-16T02:49:42.648Z,15.7
2018-07-16T02:50:42.486Z,15.76
2018-07-16T02:51:42.517Z,15.68
2018-07-16T02:52:42.599Z,15.74
2018-07-16T02:53:42.491Z,15.7
2018-07-16T02:54:42.498Z,15.66
2018-07-16T02:55:42.595Z,15.7
2018-07-16T02:56:42.547Z,15.83
2018-07-16T02:57:42.569Z,16.06
2018-07-16T02:58:42.538Z,16.16
2018-07-16T02:59:42.539Z,16.2
2018-07-16T03:00:42.506Z,16.16
2018-07-16T03:01:42.631Z,16.1
2018-07-16T03:02:42.562Z,16.24
2018-07-16T03:03:42.559Z,16.24
2018-07-16T03:04:42.533Z,16.39
2018-07-16T03:05:42.482Z,16.16
2018-07-16T03:06:42.621Z,16.08
2018-07-16T03:07:42.495Z,16.32
2018-07-16T03:08:42.633Z,16.3
2018-07-16T03:09:42.502Z,16.3
2018-07-16T03:10:42.476Z,16.45
2018-07-16T03:11:42.484Z,16.26
2018-07-16T03:12:42.529Z,16.11
2018-07-16T03:13:42.502Z,16.34
2018-07-16T03:14:42.488Z,16.35
2018-07-16T03:15:42.572Z,16.3
2018-07-16T03:16:42.507Z,16.42
2018-07-16T03:17:42.511Z,16.22
2018-07-16T03:18:42.474Z,16.13
2018-07-16T03:19:42.484Z,16.2
2018-07-16T03:20:42.488Z,16.14
2018-07-16T03:21:42.495Z,16.13
2018-07-16T03:22:42.564Z,16.12
2018-07-16T03:23:42.502Z,16.21
2018-07-16T03:24:42.487Z,16.36
2018-07-16T03:25:42.465Z,16.16
2018-07-16T03:26:42.491Z,16.2
2018-07-16T03:27:42.492Z,16.18
2018-07-16T03:28:42.643Z,16.24
2018-07-16T03:29:42.485Z,16.38
2018-07-16T03:30:42.548Z,16.18
2018-07-16T03:31:42.530Z,16.11
2018-07-16T03:32:42.489Z,16.1
2018-07-16T03:33:42.521Z,16.11
2018-07-16T03:34:42.539Z,16.35
2018-07-16T03:35:42.463Z,16.16
2018-07-16T03:36:42.473Z,16.4
2018-07-16T03:37:42.477Z,16.36
2018-07-16T03:38:42.673Z,16.39
2018-07-16T03:39:42.575Z,16.45
2018-07-16T03:40:42.496Z,16.29
2018-07-16T03:41:42.520Z,16.2
2018-07-16T03:42:42.771Z,16.1
2018-07-16T03:43:42.680Z,16.33
2018-07-16T03:44:42.608Z,16.42
2018-07-16T03:45:42.484Z,16.52
2018-07-16T03:46:42.535Z,16.3
2018-07-16T03:47:42.484Z,16.6
2018-07-16T03:48:42.611Z,16.54
2018-07-16T03:49:42.516Z,16.47
2018-07-16T03:50:42.554Z,16.46
2018-07-16T03:51:42.454Z,16.44
2018-07-16T03:52:42.465Z,16.59
2018-07-16T03:53:42.544Z,16.5
2018-07-16T03:54:42.550Z,16.63
2018-07-16T03:55:42.847Z,16.48
2018-07-16T03:56:42.464Z,16.38
2018-07-16T03:57:42.640Z,16.52
2018-07-16T03:58:42.480Z,16.42
2018-07-16T03:59:42.492Z,16.4
2018-07-16T04:00:42.509Z,16.41
2018-07-16T04:01:43.335Z,16.42
2018-07-16T04:02:42.529Z,16.35
2018-07-16T04:03:42.469Z,16.49
2018-07-16T04:04:42.479Z,16.6
2018-07-16T04:05:42.470Z,16.66
2018-07-16T04:06:42.567Z,16.59
2018-07-16T04:07:42.500Z,16.62
2018-07-16T04:08:42.461Z,16.62
2018-07-16T04:09:42.472Z,16.59
2018-07-16T04:10:42.491Z,16.57
2018-07-16T04:11:42.552Z,16.78
2018-07-16T04:12:42.571Z,16.56
2018-07-16T04:13:42.474Z,16.58
2018-07-16T04:14:42.510Z,16.49
2018-07-16T04:15:42.649Z,16.53
2018-07-16T04:16:42.506Z,16.5
2018-07-16T04:17:42.515Z,16.57
2018-07-16T04:18:42.472Z,16.58
2018-07-16T04:19:42.494Z,16.6
2018-07-16T04:20:42.469Z,16.58
2018-07-16T04:21:42.460Z,16.43
2018-07-16T04:22:42.483Z,16.39
2018-07-16T04:23:42.477Z,16.24
2018-07-16T04:24:42.483Z,16.23
2018-07-16T04:25:42.475Z,16.25
2018-07-16T04:26:42.475Z,16.26
2018-07-16T04:27:42.469Z,16.21
2018-07-16T04:28:42.477Z,16.29
2018-07-16T04:29:42.438Z,16.27
2018-07-16T04:30:42.473Z,16.35
2018-07-16T04:31:42.464Z,16.32
2018-07-16T04:32:42.480Z,16.15
2018-07-16T04:33:42.479Z,16.17
2018-07-16T04:34:42.440Z,16.25
2018-07-16T04:35:42.468Z,16.38
2018-07-16T04:36:42.508Z,16.42
2018-07-16T04:37:42.460Z,16.24
2018-07-16T04:38:42.526Z,16.17
2018-07-16T04:39:42.694Z,16.08
2018-07-16T04:40:42.476Z,16.06
2018-07-16T04:41:42.486Z,16.03
2018-07-16T04:42:42.797Z,16.02
2018-07-16T04:43:42.477Z,16.02
2018-07-16T04:44:42.517Z,16
2018-07-16T04:45:42.503Z,16.19
2018-07-16T04:46:42.459Z,16.52
2018-07-16T04:47:42.586Z,16.53
2018-07-16T04:48:42.480Z,16.54
2018-07-16T04:49:42.631Z,16.53
2018-07-16T04:50:42.514Z,16.53
2018-07-16T04:51:42.459Z,16.42
2018-07-16T04:52:42.489Z,16.39
2018-07-16T04:53:42.455Z,16.29
2018-07-16T04:54:42.490Z,16.28
2018-07-16T04:55:42.667Z,16.29
2018-07-16T04:56:42.568Z,16.28
2018-07-16T04:57:42.486Z,16.21
2018-07-16T04:58:42.508Z,16.1
2018-07-16T04:59:42.510Z,16.1
2018-07-16T05:00:42.447Z,16.17
2018-07-16T05:01:42.453Z,16.17
2018-07-16T05:02:42.496Z,16.15
2018-07-16T05:03:42.469Z,16.16
2018-07-16T05:04:42.491Z,16.26
2018-07-16T05:05:42.632Z,16.2
2018-07-16T05:06:42.536Z,16.27
2018-07-16T05:07:42.614Z,16.31
2018-07-16T05:08:42.562Z,16.31
2018-07-16T05:09:42.551Z,16.38
2018-07-16T05:10:42.498Z,16.37
2018-07-16T05:11:42.543Z,16.38
2018-07-16T05:12:42.507Z,16.38
2018-07-16T05:13:42.531Z,16.54
2018-07-16T05:14:42.564Z,16.66
2018-07-16T05:15:42.477Z,16.55
2018-07-16T05:16:42.513Z,16.49
2018-07-16T05:17:42.615Z,16.77
2018-07-16T05:18:42.658Z,16.63
2018-07-16T05:19:42.476Z,16.75
2018-07-16T05:20:42.483Z,16.6
2018-07-16T05:21:42.498Z,16.78
2018-07-16T05:22:42.485Z,16.78
2018-07-16T05:23:42.519Z,16.83
2018-07-16T05:24:42.610Z,16.73
2018-07-16T05:25:42.553Z,16.6
2018-07-16T05:26:42.490Z,16.61
2018-07-16T05:27:42.497Z,16.49
2018-07-16T05:28:42.828Z,16.67
2018-07-16T05:29:42.578Z,16.6
2018-07-16T05:30:42.532Z,16.5
2018-07-16T05:31:42.886Z,16.54
2018-07-16T05:32:44.156Z,16.56
2018-07-16T05:33:42.666Z,16.43
2018-07-16T05:34:42.529Z,16.49
2018-07-16T05:35:42.509Z,16.63
2018-07-16T05:36:42.497Z,16.56
2018-07-16T05:37:42.543Z,16.53
2018-07-16T05:38:42.510Z,16.55
2018-07-16T05:39:42.515Z,16.5
2018-07-16T05:40:42.515Z,16.59
2018-07-16T05:41:42.650Z,16.47
2018-07-16T05:42:42.510Z,16.41
2018-07-16T05:43:42.505Z,16.47
2018-07-16T05:44:42.520Z,16.4
2018-07-16T05:45:42.524Z,16.49
2018-07-16T05:46:42.496Z,16.46
2018-07-16T05:47:42.501Z,16.54
2018-07-16T05:48:42.498Z,16.48
2018-07-16T05:49:42.482Z,16.54
2018-07-16T05:50:42.480Z,16.53
2018-07-16T05:51:42.508Z,16.47
2018-07-16T05:52:42.482Z,16.59
2018-07-16T05:53:42.493Z,16.45
2018-07-16T05:54:42.493Z,16.35
2018-07-16T05:55:42.502Z,16.32
2018-07-16T05:56:42.492Z,16.31
2018-07-16T05:57:42.499Z,16.32
2018-07-16T05:58:42.504Z,16.5
2018-07-16T05:59:42.514Z,16.54
2018-07-16T06:00:42.517Z,16.59
2018-07-16T06:01:42.555Z,16.61
2018-07-16T06:02:42.656Z,16.53
2018-07-16T06:03:42.541Z,16.74
2018-07-16T06:04:42.562Z,16.64
2018-07-16T06:05:42.502Z,16.58
2018-07-16T06:06:42.561Z,16.67
2018-07-16T06:07:42.527Z,16.61
2018-07-16T06:08:42.704Z,16.6
2018-07-16T06:09:42.507Z,16.7
2018-07-16T06:10:42.827Z,16.64
2018-07-16T06:11:42.496Z,16.66
2018-07-16T06:12:42.573Z,16.58
2018-07-16T06:13:42.712Z,16.63
2018-07-16T06:14:42.699Z,16.73
2018-07-16T06:15:42.548Z,16.74
2018-07-16T06:16:42.841Z,16.65
2018-07-16T06:17:42.581Z,16.8
2018-07-16T06:18:42.505Z,16.81
2018-07-16T06:19:42.573Z,16.63
2018-07-16T06:20:42.659Z,16.67
2018-07-16T06:21:42.532Z,16.7
2018-07-16T06:22:42.720Z,16.82
2018-07-16T06:23:42.504Z,16.72
2018-07-16T06:24:42.558Z,16.67
2018-07-16T06:25:42.526Z,16.79
2018-07-16T06:26:42.522Z,16.95
2018-07-16T06:27:42.604Z,16.63
2018-07-16T06:28:42.526Z,16.54
2018-07-16T06:29:42.544Z,16.56
2018-07-16T06:30:42.551Z,16.62
2018-07-16T06:31:42.529Z,16.56
2018-07-16T06:32:42.573Z,16.58
2018-07-16T06:33:43.573Z,16.8
2018-07-16T06:34:42.512Z,16.68
2018-07-16T06:35:42.553Z,16.62
2018-07-16T06:36:42.667Z,16.35
2018-07-16T06:37:42.541Z,16.38
2018-07-16T06:38:42.526Z,16.41
2018-07-16T06:39:43.535Z,16.5
2018-07-16T06:40:44.263Z,16.61
2018-07-16T06:41:42.574Z,16.51
2018-07-16T06:42:42.524Z,16.65
2018-07-16T06:43:42.576Z,16.61
2018-07-16T06:44:42.533Z,16.68
2018-07-16T06:45:42.595Z,16.82
2018-07-16T06:46:42.555Z,16.74
2018-07-16T06:47:42.752Z,16.79
2018-07-16T06:48:42.611Z,16.76
2018-07-16T06:49:42.602Z,16.91
2018-07-16T06:50:42.868Z,16.9
2018-07-16T06:51:42.531Z,16.92
2018-07-16T06:52:42.537Z,16.96
2018-07-16T06:53:42.562Z,17.21
2018-07-16T06:54:42.602Z,16.86
2018-07-16T06:55:42.515Z,16.95
2018-07-16T06:56:42.573Z,16.89
2018-07-16T06:57:42.602Z,16.91
2018-07-16T06:58:42.580Z,17.06
2018-07-16T06:59:42.547Z,16.87
2018-07-16T07:00:42.741Z,16.59
2018-07-16T07:01:42.560Z,16.59
2018-07-16T07:02:42.546Z,16.51
2018-07-16T07:03:42.550Z,16.76
2018-07-16T07:04:42.671Z,16.68
2018-07-16T07:05:42.596Z,16.7
2018-07-16T07:06:42.571Z,16.69
2018-07-16T07:07:42.588Z,16.77
2018-07-16T07:08:42.615Z,16.76
2018-07-16T07:09:42.533Z,16.87
2018-07-16T07:10:42.576Z,16.91
2018-07-16T07:11:42.703Z,16.92
2018-07-16T07:12:42.566Z,16.82
2018-07-16T07:13:42.707Z,16.82
2018-07-16T07:14:42.579Z,16.84
2018-07-16T07:15:42.602Z,16.97
2018-07-16T07:16:42.541Z,16.83
2018-07-16T07:17:42.571Z,16.89
2018-07-16T07:18:42.559Z,16.85
2018-07-16T07:19:42.614Z,16.75
2018-07-16T07:20:42.581Z,16.65
2018-07-16T07:21:42.571Z,16.74
2018-07-16T07:22:42.593Z,16.8
2018-07-16T07:23:42.599Z,16.81
2018-07-16T07:24:42.630Z,16.48
2018-07-16T07:25:42.616Z,16.61
2018-07-16T07:26:42.605Z,16.61
2018-07-16T07:27:42.652Z,16.73
2018-07-16T07:28:42.650Z,16.65
2018-07-16T07:29:42.660Z,16.69
2018-07-16T07:30:42.612Z,16.68
2018-07-16T07:31:42.616Z,16.48
2018-07-16T07:32:42.684Z,16.54
2018-07-16T07:33:42.639Z,16.64
2018-07-16T07:34:42.675Z,16.74
2018-07-16T07:35:43.768Z,16.83
2018-07-16T07:36:42.793Z,16.84
2018-07-16T07:37:43.280Z,16.77
2018-07-16T07:38:42.599Z,16.71
2018-07-16T07:39:42.737Z,16.49
2018-07-16T07:40:42.578Z,16.56
2018-07-16T07:41:42.583Z,16.72
2018-07-16T07:42:42.628Z,16.62
2018-07-16T07:43:42.588Z,16.71
2018-07-16T07:44:42.584Z,16.81
2018-07-16T07:45:42.671Z,16.9
2018-07-16T07:46:42.619Z,16.93
2018-07-16T07:47:43.465Z,16.99
2018-07-16T07:48:42.773Z,16.93
2018-07-16T07:49:42.603Z,16.96
2018-07-16T07:50:42.587Z,16.86
2018-07-16T07:51:42.595Z,16.82
2018-07-16T07:52:42.680Z,16.68
2018-07-16T07:53:42.607Z,16.81
2018-07-16T07:54:44.146Z,16.89
2018-07-16T07:55:43.109Z,16.55
2018-07-16T07:56:42.624Z,16.63
2018-07-16T07:57:42.604Z,16.74
2018-07-16T07:58:42.660Z,16.73
2018-07-16T07:59:42.667Z,16.84
2018-07-16T08:00:42.647Z,16.85
2018-07-16T08:01:42.596Z,16.8
2018-07-16T08:02:42.604Z,16.81
2018-07-16T08:03:42.668Z,16.62
2018-07-16T08:04:42.611Z,16.63
2018-07-16T08:05:42.608Z,16.64
2018-07-16T08:06:42.717Z,16.67
2018-07-16T08:07:42.624Z,16.46
2018-07-16T08:08:42.609Z,16.66
2018-07-16T08:09:42.682Z,16.8
2018-07-16T08:10:42.642Z,16.72
2018-07-16T08:11:42.898Z,16.86
2018-07-16T08:12:42.701Z,16.94
2018-07-16T08:13:42.999Z,16.88
2018-07-16T08:14:43.378Z,17.18
2018-07-16T08:15:42.656Z,17.06
2018-07-16T08:16:42.647Z,16.97
2018-07-16T08:17:42.673Z,17.05
2018-07-16T08:18:43.580Z,17.16
2018-07-16T08:19:44.993Z,17.28
2018-07-16T08:20:42.657Z,17.13
2018-07-16T08:21:42.647Z,17.07
2018-07-16T08:22:42.702Z,17.22
2018-07-16T08:23:42.709Z,17.21
2018-07-16T08:24:42.707Z,17.2
2018-07-16T08:25:42.632Z,17.29
2018-07-16T08:26:42.647Z,17.2
2018-07-16T08:27:44.924Z,17.19
2018-07-16T08:28:42.636Z,17.14
2018-07-16T08:29:42.655Z,17.27
2018-07-16T08:30:43.067Z,17.18
2018-07-16T08:31:42.734Z,17.27
2018-07-16T08:32:42.668Z,17.31
2018-07-16T08:33:43.350Z,17.5
2018-07-16T08:34:42.796Z,17.3
2018-07-16T08:35:45.200Z,17.26
2018-07-16T08:36:42.692Z,17.28
2018-07-16T08:37:42.775Z,17.31
2018-07-16T08:38:42.744Z,17.27
2018-07-16T08:39:42.788Z,17.35
2018-07-16T08:40:42.744Z,17.44
2018-07-16T08:41:42.753Z,17.36
2018-07-16T08:42:42.830Z,17.36
2018-07-16T08:43:45.258Z,17.24
2018-07-16T08:44:42.899Z,17.32
2018-07-16T08:45:42.805Z,17.36
2018-07-16T08:46:42.667Z,17.42
2018-07-16T08:47:42.719Z,17.4
2018-07-16T08:48:42.725Z,17.31
2018-07-16T08:49:42.636Z,17.26
2018-07-16T08:50:42.854Z,17.2
2018-07-16T08:51:42.649Z,17.29
2018-07-16T08:52:42.935Z,17.44
2018-07-16T08:53:42.671Z,17.49
2018-07-16T08:54:42.668Z,17.3
2018-07-16T08:55:43.066Z,17.24
2018-07-16T08:56:42.745Z,16.99
2018-07-16T08:57:42.687Z,17.01
2018-07-16T08:58:42.649Z,17.24
2018-07-16T08:59:42.690Z,17.15
2018-07-16T09:00:42.633Z,17.09
2018-07-16T09:01:42.670Z,17.15
2018-07-16T09:02:42.660Z,17.25
2018-07-16T09:03:42.757Z,17.34
2018-07-16T09:04:42.878Z,17.2
2018-07-16T09:05:43.109Z,17.12
2018-07-16T09:06:42.638Z,17.11
2018-07-16T09:07:42.632Z,16.99
2018-07-16T09:08:42.687Z,17.07
2018-07-16T09:09:42.618Z,17.18
2018-07-16T09:10:42.695Z,17.32
2018-07-16T09:11:42.671Z,17.31
2018-07-16T09:12:42.653Z,17.23
2018-07-16T09:13:42.692Z,17.19
2018-07-16T09:14:42.727Z,17.12
2018-07-16T09:15:42.797Z,16.79
2018-07-16T09:16:42.810Z,16.85
2018-07-16T09:17:42.807Z,16.89
2018-07-16T09:18:42.656Z,16.83
2018-07-16T09:19:42.660Z,16.72
2018-07-16T09:20:42.638Z,17.08
2018-07-16T09:21:42.776Z,16.97
2018-07-16T09:22:42.646Z,16.57
2018-07-16T09:23:42.659Z,16.66
2018-07-16T09:24:42.659Z,16.48
2018-07-16T09:25:42.661Z,16.58
2018-07-16T09:26:42.657Z,16.57
2018-07-16T09:27:42.631Z,16.61
2018-07-16T09:28:42.743Z,16.66
2018-07-16T09:29:42.666Z,16.44
2018-07-16T09:30:42.639Z,16.59
2018-07-16T09:31:42.628Z,16.49
2018-07-16T09:32:43.049Z,16.43
2018-07-16T09:33:42.661Z,16.66
2018-07-16T09:34:42.635Z,16.5
2018-07-16T09:35:42.646Z,16.02
2018-07-16T09:36:42.634Z,16.41
2018-07-16T09:37:42.641Z,16.29
2018-07-16T09:38:42.629Z,16.32
2018-07-16T09:39:42.920Z,16.35
2018-07-16T09:40:42.655Z,16.53
2018-07-16T09:41:42.655Z,16.37
2018-07-16T09:42:42.695Z,16.55
2018-07-16T09:43:42.741Z,16.4
2018-07-16T09:44:42.664Z,16.33
2018-07-16T09:45:42.666Z,16.24
2018-07-16T09:46:42.699Z,16.19
2018-07-16T09:47:42.677Z,16.12
2018-07-16T09:48:42.707Z,16.14
2018-07-16T09:49:42.874Z,16.07
2018-07-16T09:50:42.728Z,16.17
2018-07-16T09:51:42.674Z,15.76
2018-07-16T09:52:42.649Z,16.22
2018-07-16T09:53:42.688Z,15.95
2018-07-16T09:54:42.755Z,15.62
2018-07-16T09:55:42.750Z,15.69
2018-07-16T09:56:42.719Z,15.43
2018-07-16T09:57:42.725Z,15.39
2018-07-16T09:58:42.868Z,15.71
2018-07-16T09:59:42.729Z,15.76
2018-07-16T10:00:42.747Z,15.43
2018-07-16T10:01:42.761Z,15.68
2018-07-16T10:02:42.691Z,16.09
2018-07-16T10:03:42.732Z,16.28
2018-07-16T10:04:42.674Z,16.32
2018-07-16T10:05:42.918Z,16.19
2018-07-16T10:06:42.742Z,15.73
2018-07-16T10:07:42.662Z,15.83
2018-07-16T10:08:42.752Z,16.17
2018-07-16T10:09:42.655Z,16.28
2018-07-16T10:10:42.784Z,16.18
2018-07-16T10:11:42.698Z,16.23
2018-07-16T10:12:42.692Z,16.06
2018-07-16T10:13:42.781Z,15.99
2018-07-16T10:14:42.755Z,15.87
2018-07-16T10:15:42.677Z,15.77
2018-07-16T10:16:42.758Z,15.57
2018-07-16T10:17:42.712Z,15.79
2018-07-16T10:18:42.817Z,15.6
2018-07-16T10:19:42.678Z,15.38
2018-07-16T10:20:42.749Z,14.41
2018-07-16T10:21:42.714Z,13.71
2018-07-16T10:22:42.754Z,14.26
2018-07-16T10:23:42.808Z,14.68
2018-07-16T10:24:42.703Z,14.66
2018-07-16T10:25:43.052Z,14.44
2018-07-16T10:26:42.680Z,14.35
2018-07-16T10:27:42.721Z,14.41
2018-07-16T10:28:42.732Z,14.68
2018-07-16T10:29:42.701Z,15.03
2018-07-16T10:30:42.863Z,14.99
2018-07-16T10:31:42.714Z,15.22
2018-07-16T10:32:42.722Z,15.02
2018-07-16T10:33:43.091Z,14.7
2018-07-16T10:34:42.812Z,14.71
2018-07-16T10:35:42.731Z,14.34
2018-07-16T10:36:42.722Z,14.24
2018-07-16T10:37:42.676Z,14.4
2018-07-16T10:38:42.706Z,14.63
2018-07-16T10:39:42.758Z,14.89
2018-07-16T10:40:42.783Z,14.98
2018-07-16T10:41:42.706Z,14.79
2018-07-16T10:42:42.703Z,13.94
2018-07-16T10:43:42.742Z,13.85
2018-07-16T10:44:42.707Z,13.87
2018-07-16T10:45:42.684Z,13.59
2018-07-16T10:46:42.740Z,13.73
2018-07-16T10:47:42.697Z,13.67
2018-07-16T10:48:42.704Z,13.97
2018-07-16T10:49:43.265Z,14.08
2018-07-16T10:50:42.692Z,14.66
2018-07-16T10:51:42.711Z,14.66
2018-07-16T10:52:42.725Z,14.87
2018-07-16T10:53:42.680Z,14.66
2018-07-16T10:54:42.708Z,14.83
2018-07-16T10:55:42.721Z,14.57
2018-07-16T10:56:42.701Z,14.75
2018-07-16T10:57:42.755Z,14.88
2018-07-16T10:58:42.752Z,13.71
2018-07-16T10:59:42.708Z,13.76
2018-07-16T11:00:42.871Z,14.03
2018-07-16T11:01:42.755Z,14.2
2018-07-16T11:02:42.725Z,14.34
2018-07-16T11:03:42.711Z,14.43
2018-07-16T11:04:42.739Z,14.38
2018-07-16T11:05:42.735Z,14.51
2018-07-16T11:06:42.762Z,14.86
2018-07-16T11:07:42.780Z,14.75
2018-07-16T11:08:42.771Z,14.65
2018-07-16T11:09:42.755Z,14.7
2018-07-16T11:10:42.757Z,14.87
2018-07-16T11:11:42.760Z,14.68
2018-07-16T11:12:42.696Z,14.28
2018-07-16T11:13:42.740Z,15
2018-07-16T11:14:42.796Z,14.92
2018-07-16T11:15:42.721Z,14.91
2018-07-16T11:16:42.774Z,15.01
2018-07-16T11:17:42.776Z,14.52
2018-07-16T11:18:42.721Z,14.46
2018-07-16T11:19:42.844Z,14.52
2018-07-16T11:20:42.923Z,14.28
2018-07-16T11:21:42.860Z,14.31
2018-07-16T11:22:42.700Z,14.37
2018-07-16T11:23:42.723Z,14.05
2018-07-16T11:24:42.738Z,13.8
2018-07-16T11:25:42.721Z,13.94
2018-07-16T11:26:42.727Z,14.11
2018-07-16T11:27:42.737Z,13.89
2018-07-16T11:28:42.789Z,13.69
2018-07-16T11:29:42.855Z,12.64
2018-07-16T11:30:42.844Z,12.59
2018-07-16T11:31:42.777Z,13.38
2018-07-16T11:32:42.776Z,13.93
2018-07-16T11:33:42.764Z,14.01
2018-07-16T11:34:42.827Z,14.24
2018-07-16T11:35:43.103Z,14.42
2018-07-16T11:36:42.754Z,14.4
2018-07-16T11:37:42.769Z,14.06
2018-07-16T11:38:42.760Z,14.13
2018-07-16T11:39:42.733Z,14.21
2018-07-16T11:40:42.786Z,14.26
2018-07-16T11:41:42.779Z,14.32
2018-07-16T11:42:42.739Z,14.05
2018-07-16T11:43:43.114Z,13.41
2018-07-16T11:44:42.965Z,13.95
2018-07-16T11:45:42.760Z,13.52
2018-07-16T11:46:42.736Z,13.55
2018-07-16T11:47:42.756Z,13.9
2018-07-16T11:48:42.813Z,13.96
2018-07-16T11:49:42.746Z,13.46
2018-07-16T11:50:42.766Z,13.76
2018-07-16T11:51:42.764Z,13.59
2018-07-16T11:52:42.812Z,13.72
2018-07-16T11:53:42.761Z,13.74
2018-07-16T11:54:42.838Z,12.93
2018-07-16T11:55:42.808Z,12.48
2018-07-16T11:56:42.772Z,12.86
2018-07-16T11:57:42.775Z,12.95
2018-07-16T11:58:42.799Z,12.89
2018-07-16T11:59:42.734Z,13.05
2018-07-16T12:00:42.749Z,13.02
2018-07-16T12:01:43.092Z,13.59
2018-07-16T12:02:42.785Z,13.69
2018-07-16T12:03:42.968Z,12.84
2018-07-16T12:04:42.791Z,12.46
2018-07-16T12:05:42.788Z,13.58
2018-07-16T12:06:42.805Z,13.39
2018-07-16T12:07:42.786Z,13.1
2018-07-16T12:08:42.760Z,13.57
2018-07-16T12:09:42.797Z,13.28
2018-07-16T12:10:42.791Z,13.34
2018-07-16T12:11:42.781Z,13.94
2018-07-16T12:12:43.551Z,14.05
2018-07-16T12:13:42.754Z,14.02
2018-07-16T12:14:42.761Z,13.94
2018-07-16T12:15:42.768Z,13.41
2018-07-16T12:16:42.837Z,13.88
2018-07-16T12:17:42.821Z,14.05
2018-07-16T12:18:42.913Z,13.85
2018-07-16T12:19:42.853Z,14.12
2018-07-16T12:20:42.829Z,14.13
2018-07-16T12:21:42.815Z,14.45
2018-07-16T12:22:42.848Z,13.9
2018-07-16T12:23:43.072Z,14.01
2018-07-16T12:24:42.841Z,13.29
2018-07-16T12:25:42.773Z,13.57
2018-07-16T12:26:43.008Z,13.59
2018-07-16T12:27:42.863Z,13.8
2018-07-16T12:28:42.829Z,13.21
2018-07-16T12:29:42.825Z,13.65
2018-07-16T12:30:42.846Z,13.35
2018-07-16T12:31:42.788Z,13.64
2018-07-16T12:32:43.133Z,14.02
2018-07-16T12:33:42.861Z,14.33
2018-07-16T12:34:42.861Z,14.29
2018-07-16T12:35:42.923Z,14.23
2018-07-16T12:36:42.854Z,13.91
2018-07-16T12:37:42.824Z,13.94
2018-07-16T12:38:42.860Z,14.16
2018-07-16T12:39:42.788Z,14
2018-07-16T12:40:42.841Z,14.05
2018-07-16T12:41:43.216Z,14.02
2018-07-16T12:42:42.804Z,13.33
2018-07-16T12:43:42.897Z,14.03
2018-07-16T12:44:42.797Z,13.76
2018-07-16T12:45:42.802Z,13.98
2018-07-16T12:46:42.821Z,13.31
2018-07-16T12:47:42.902Z,13.12
2018-07-16T12:48:42.790Z,13.37
2018-07-16T12:49:42.783Z,13.62
2018-07-16T12:50:42.847Z,13.83
2018-07-16T12:51:42.950Z,13.45
2018-07-16T12:52:42.803Z,14.36
2018-07-16T12:53:42.786Z,14.26
2018-07-16T12:54:42.805Z,13.66
2018-07-16T12:55:42.913Z,13.74